createdAt,value
2019-03-30T00:00:49.894Z,305.06
2019-03-30T00:01:49.905Z,305.24
2019-03-30T00:02:49.892Z,305.48
2019-03-30T00:03:49.893Z,305.18
2019-03-30T00:04:49.863Z,305.49
2019-03-30T00:05:49.852Z,305.37
2019-03-30T00:06:49.848Z,305.03
2019-03-30T00:07:49.840Z,305.01
2019-03-30T00:08:49.840Z,305.53
2019-03-30T00:09:49.800Z,305.22
2019-03-30T00:10:49.791Z,305.24
2019-03-30T00:11:49.863Z,305.26
2019-03-30T00:12:49.784Z,305.59
2019-03-30T00:13:49.768Z,305.56
2019-03-30T00:14:49.762Z,305.34
2019-03-30T00:15:49.735Z,305.06
2019-03-30T00:16:49.733Z,305.38
2019-03-30T00:17:49.752Z,305.25
2019-03-30T00:18:49.708Z,305.05
2019-03-30T00:19:49.696Z,305.05
2019-03-30T00:20:49.779Z,305.30
2019-03-30T00:21:49.671Z,305.23
2019-03-30T00:22:49.662Z,305.50
2019-03-30T00:23:49.661Z,304.82
2019-03-30T00:24:49.646Z,305.57
2019-03-30T00:25:49.635Z,305.05
2019-03-30T00:26:50.255Z,305.50
2019-03-30T00:27:49.600Z,305.41
2019-03-30T00:28:49.589Z,305.60
2019-03-30T00:29:49.579Z,305.23
2019-03-30T00:30:49.839Z,304.75
2019-03-30T00:31:49.606Z,305.34
2019-03-30T00:32:49.545Z,305.19
2019-03-30T00:33:49.544Z,305.06
2019-03-30T00:34:49.538Z,304.87
2019-03-30T00:35:49.522Z,305.32
2019-03-30T00:36:49.518Z,304.99
2019-03-30T00:37:49.510Z,305.01
2019-03-30T00:38:49.482Z,305.47
2019-03-30T00:39:49.483Z,304.82
2019-03-30T00:40:49.765Z,305.43
2019-03-30T00:41:49.447Z,305.04
2019-03-30T00:42:49.472Z,305.42
2019-03-30T00:43:49.435Z,305.17
2019-03-30T00:44:49.484Z,305.20
2019-03-30T00:45:49.407Z,305.71
2019-03-30T00:46:49.405Z,305.12
2019-03-30T00:47:49.398Z,304.99
2019-03-30T00:48:49.774Z,305.49
2019-03-30T00:49:50.272Z,305.52
2019-03-30T00:50:49.356Z,305.31
2019-03-30T00:51:49.338Z,305.43
2019-03-30T00:52:49.361Z,304.94
2019-03-30T00:53:49.318Z,305.03
2019-03-30T00:54:49.318Z,305.54
2019-03-30T00:55:49.298Z,305.27
2019-03-30T00:56:49.298Z,305.33
2019-03-30T00:57:49.281Z,304.57
2019-03-30T00:58:49.276Z,305.71
2019-03-30T00:59:49.248Z,305.53
2019-03-30T01:00:49.257Z,305.25
2019-03-30T01:01:49.232Z,305.37
2019-03-30T01:02:49.243Z,305.33
2019-03-30T01:03:49.215Z,305.19
2019-03-30T01:04:49.188Z,305.59
2019-03-30T01:05:49.202Z,305.22
2019-03-30T01:06:49.189Z,305.23
2019-03-30T01:07:49.171Z,305.18
2019-03-30T01:08:49.165Z,305.15
2019-03-30T01:09:49.149Z,305.31
2019-03-30T01:10:49.156Z,305.06
2019-03-30T01:11:49.118Z,305.56
2019-03-30T01:12:49.104Z,305.57
2019-03-30T01:13:49.096Z,305.05
2019-03-30T01:14:49.094Z,304.94
2019-03-30T01:15:49.114Z,305.31
2019-03-30T01:16:49.103Z,304.98
2019-03-30T01:17:49.059Z,305.59
2019-03-30T01:18:49.039Z,305.08
2019-03-30T01:20:01.946Z,305.30
2019-03-30T01:20:50.040Z,305.45
2019-03-30T01:21:49.044Z,305.37
2019-03-30T01:22:48.999Z,305.07
2019-03-30T01:23:48.988Z,304.84
2019-03-30T01:24:48.972Z,305.49
2019-03-30T01:25:48.984Z,305.05
2019-03-30T01:26:48.962Z,304.68
2019-03-30T01:27:48.970Z,305.58
2019-03-30T01:28:48.948Z,305.50
2019-03-30T01:29:48.930Z,305.36
2019-03-30T01:30:48.907Z,305.86
2019-03-30T01:31:48.914Z,305.26
2019-03-30T01:32:48.904Z,305.47
2019-03-30T01:33:48.880Z,305.50
2019-03-30T01:34:48.882Z,305.30
2019-03-30T01:35:48.863Z,305.37
2019-03-30T01:36:48.877Z,304.82
2019-03-30T01:37:48.862Z,305.64
2019-03-30T01:38:48.842Z,305.30
2019-03-30T01:39:48.818Z,305.20
2019-03-30T01:40:48.809Z,305.32
2019-03-30T01:41:48.796Z,305.23
2019-03-30T01:42:48.779Z,305.17
2019-03-30T01:43:48.786Z,305.12
2019-03-30T01:44:48.763Z,305.24
2019-03-30T01:45:48.744Z,305.32
2019-03-30T01:46:48.766Z,305.20
2019-03-30T01:47:48.731Z,305.11
2019-03-30T01:48:48.759Z,305.25
2019-03-30T01:49:48.706Z,305.05
2019-03-30T01:50:48.695Z,305.14
2019-03-30T01:51:48.689Z,305.23
2019-03-30T01:52:48.671Z,305.57
2019-03-30T01:53:48.684Z,305.30
2019-03-30T01:54:48.652Z,305.56
2019-03-30T01:55:48.637Z,305.24
2019-03-30T01:56:48.621Z,305.18
2019-03-30T01:57:48.616Z,305.45
2019-03-30T01:58:48.650Z,305.59
2019-03-30T01:59:48.605Z,305.39
2019-03-30T02:00:48.583Z,305.50
2019-03-30T02:01:48.590Z,305.69
2019-03-30T02:02:48.559Z,305.61
2019-03-30T02:03:48.580Z,305.58
2019-03-30T02:04:48.531Z,305.09
2019-03-30T02:05:48.533Z,304.94
2019-03-30T02:06:48.527Z,305.65
2019-03-30T02:07:48.520Z,305.24
2019-03-30T02:08:48.486Z,305.62
2019-03-30T02:09:48.500Z,305.15
2019-03-30T02:10:48.480Z,305.37
2019-03-30T02:11:48.473Z,305.85
2019-03-30T02:12:48.459Z,305.16
2019-03-30T02:13:48.449Z,305.37
2019-03-30T02:14:48.459Z,305.33
2019-03-30T02:15:48.419Z,305.10
2019-03-30T02:16:48.408Z,305.44
2019-03-30T02:17:48.400Z,305.18
2019-03-30T02:18:48.394Z,305.26
2019-03-30T02:19:48.390Z,305.01
2019-03-30T02:20:48.398Z,305.06
2019-03-30T02:21:48.410Z,305.50
2019-03-30T02:22:48.338Z,305.51
2019-03-30T02:23:48.341Z,305.72
2019-03-30T02:24:48.352Z,305.14
2019-03-30T02:25:48.340Z,305.55
2019-03-30T02:26:48.298Z,305.30
2019-03-30T02:27:48.289Z,305.61
2019-03-30T02:28:48.277Z,305.20
2019-03-30T02:29:48.272Z,305.45
2019-03-30T02:30:48.280Z,305.18
2019-03-30T02:31:48.253Z,305.09
2019-03-30T02:32:48.242Z,305.70
2019-03-30T02:33:48.233Z,305.68
2019-03-30T02:34:48.227Z,305.29
2019-03-30T02:35:48.223Z,305.52
2019-03-30T02:36:48.179Z,305.36
2019-03-30T02:37:48.200Z,305.25
2019-03-30T02:38:48.210Z,305.51
2019-03-30T02:39:48.163Z,305.77
2019-03-30T02:40:48.141Z,305.32
2019-03-30T02:41:48.130Z,305.75
2019-03-30T02:42:48.261Z,304.94
2019-03-30T02:43:48.134Z,305.23
2019-03-30T02:44:48.129Z,305.26
2019-03-30T02:45:48.102Z,305.12
2019-03-30T02:46:48.081Z,305.55
2019-03-30T02:47:48.080Z,305.35
2019-03-30T02:48:48.050Z,305.90
2019-03-30T02:49:48.087Z,305.33
2019-03-30T02:50:50.350Z,305.36
2019-03-30T02:51:48.045Z,305.30
2019-03-30T02:52:48.022Z,305.61
2019-03-30T02:53:48.017Z,305.28
2019-03-30T02:54:47.989Z,305.44
2019-03-30T02:55:48.020Z,305.21
2019-03-30T02:56:47.978Z,305.29
2019-03-30T02:57:47.968Z,305.31
2019-03-30T02:58:47.946Z,305.35
2019-03-30T02:59:47.944Z,305.57
2019-03-30T03:00:47.960Z,305.48
2019-03-30T03:01:47.944Z,305.11
2019-03-30T03:02:47.918Z,305.25
2019-03-30T03:03:47.906Z,305.25
2019-03-30T03:04:47.914Z,305.42
2019-03-30T03:05:47.872Z,305.46
2019-03-30T03:06:47.878Z,305.66
2019-03-30T03:07:47.852Z,305.49
2019-03-30T03:08:47.836Z,305.69
2019-03-30T03:09:47.839Z,305.12
2019-03-30T03:10:47.847Z,305.66
2019-03-30T03:11:47.832Z,306.19
2019-03-30T03:12:47.798Z,305.71
2019-03-30T03:13:47.788Z,305.66
2019-03-30T03:14:47.825Z,305.46
2019-03-30T03:15:47.775Z,305.58
2019-03-30T03:16:47.758Z,305.17
2019-03-30T03:17:47.774Z,305.70
2019-03-30T03:18:47.725Z,305.64
2019-03-30T03:19:47.718Z,305.67
2019-03-30T03:21:06.173Z,305.66
2019-03-30T03:21:48.699Z,305.10
2019-03-30T03:22:47.695Z,305.49
2019-03-30T03:23:47.688Z,305.55
2019-03-30T03:24:47.679Z,305.87
2019-03-30T03:25:47.659Z,305.38
2019-03-30T03:26:47.672Z,305.68
2019-03-30T03:27:47.634Z,305.48
2019-03-30T03:28:47.641Z,305.32
2019-03-30T03:29:47.647Z,305.45
2019-03-30T03:30:47.600Z,305.76
2019-03-30T03:31:47.588Z,305.60
2019-03-30T03:32:47.602Z,305.29
2019-03-30T03:33:47.573Z,305.86
2019-03-30T03:34:47.559Z,305.56
2019-03-30T03:35:47.551Z,305.59
2019-03-30T03:36:47.563Z,305.52
2019-03-30T03:37:47.537Z,305.57
2019-03-30T03:38:47.516Z,305.28
2019-03-30T03:39:47.506Z,305.83
2019-03-30T03:40:47.483Z,305.69
2019-03-30T03:41:47.493Z,305.44
2019-03-30T03:42:47.491Z,305.75
2019-03-30T03:43:47.463Z,305.80
2019-03-30T03:44:47.451Z,305.36
2019-03-30T03:45:47.429Z,305.65
2019-03-30T03:46:47.454Z,305.74
2019-03-30T03:47:47.418Z,305.00
2019-03-30T03:48:47.426Z,305.62
2019-03-30T03:49:47.408Z,305.61
2019-03-30T03:50:47.372Z,305.71
2019-03-30T03:51:47.371Z,305.44
2019-03-30T03:52:47.368Z,305.31
2019-03-30T03:53:47.357Z,305.55
2019-03-30T03:54:47.347Z,305.40
2019-03-30T03:55:47.343Z,305.21
2019-03-30T03:56:47.342Z,305.31
2019-03-30T03:57:47.317Z,305.35
2019-03-30T03:58:47.317Z,305.57
2019-03-30T03:59:47.310Z,305.25
2019-03-30T04:00:47.277Z,305.35
2019-03-30T04:01:47.264Z,305.56
2019-03-30T04:02:47.244Z,305.38
2019-03-30T04:03:47.240Z,305.45
2019-03-30T04:04:47.894Z,305.86
2019-03-30T04:05:47.310Z,305.73
2019-03-30T04:06:47.211Z,305.72
2019-03-30T04:07:47.203Z,305.78
2019-03-30T04:08:47.192Z,305.71
2019-03-30T04:09:47.187Z,305.76
2019-03-30T04:10:47.200Z,305.51
2019-03-30T04:11:47.158Z,305.25
2019-03-30T04:12:47.143Z,304.85
2019-03-30T04:13:47.157Z,305.58
2019-03-30T04:14:47.129Z,305.61
2019-03-30T04:15:47.131Z,305.30
2019-03-30T04:16:47.095Z,305.65
2019-03-30T04:17:47.097Z,305.59
2019-03-30T04:18:48.254Z,305.33
2019-03-30T04:19:47.094Z,305.43
2019-03-30T04:20:47.086Z,305.34
2019-03-30T04:21:47.044Z,305.28
2019-03-30T04:22:47.035Z,305.57
2019-03-30T04:23:47.024Z,305.40
2019-03-30T04:24:47.012Z,305.70
2019-03-30T04:25:47.021Z,305.70
2019-03-30T04:26:47.018Z,305.43
2019-03-30T04:27:47.009Z,305.36
2019-03-30T04:28:46.973Z,306.17
2019-03-30T04:29:46.960Z,305.63
2019-03-30T04:30:46.941Z,305.73
2019-03-30T04:31:46.962Z,305.94
2019-03-30T04:32:46.950Z,305.31
2019-03-30T04:33:46.917Z,305.73
2019-03-30T04:34:46.899Z,305.62
2019-03-30T04:35:46.883Z,305.36
2019-03-30T04:36:46.870Z,305.75
2019-03-30T04:37:46.876Z,305.49
2019-03-30T04:38:46.863Z,305.65
2019-03-30T04:39:46.848Z,305.57
2019-03-30T04:40:46.840Z,305.36
2019-03-30T04:41:46.828Z,305.50
2019-03-30T04:42:46.841Z,305.62
2019-03-30T04:43:46.797Z,306.05
2019-03-30T04:44:46.791Z,305.57
2019-03-30T04:45:46.809Z,305.88
2019-03-30T04:46:46.766Z,305.59
2019-03-30T04:47:46.800Z,305.50
2019-03-30T04:48:46.735Z,305.89
2019-03-30T04:49:46.733Z,305.87
2019-03-30T04:50:46.734Z,305.54
2019-03-30T04:51:56.894Z,306.01
2019-03-30T04:52:47.717Z,305.50
2019-03-30T04:53:46.696Z,306.11
2019-03-30T04:54:46.673Z,305.98
2019-03-30T04:55:46.670Z,305.60
2019-03-30T04:56:46.657Z,305.99
2019-03-30T04:57:49.697Z,305.62
2019-03-30T04:58:46.673Z,305.60
2019-03-30T04:59:46.669Z,305.40
2019-03-30T05:00:46.620Z,305.48
2019-03-30T05:01:46.601Z,305.62
2019-03-30T05:02:46.586Z,305.46
2019-03-30T05:03:46.600Z,305.42
2019-03-30T05:04:46.568Z,305.58
2019-03-30T05:05:46.606Z,305.34
2019-03-30T05:06:46.549Z,305.90
2019-03-30T05:07:46.604Z,305.29
2019-03-30T05:08:46.554Z,305.99
2019-03-30T05:09:46.507Z,305.59
2019-03-30T05:10:46.519Z,305.64
2019-03-30T05:11:46.503Z,305.50
2019-03-30T05:12:46.606Z,305.61
2019-03-30T05:13:46.508Z,305.76
2019-03-30T05:14:46.458Z,305.75
2019-03-30T05:15:46.449Z,306.01
2019-03-30T05:16:46.434Z,305.77
2019-03-30T05:17:48.056Z,305.59
2019-03-30T05:18:46.444Z,305.76
2019-03-30T05:19:46.433Z,305.31
2019-03-30T05:20:46.391Z,305.45
2019-03-30T05:21:46.396Z,305.88
2019-03-30T05:22:46.380Z,305.92
2019-03-30T05:23:46.371Z,305.64
2019-03-30T05:24:46.387Z,305.84
2019-03-30T05:25:46.348Z,306.04
2019-03-30T05:26:46.322Z,305.79
2019-03-30T05:27:46.314Z,306.13
2019-03-30T05:28:46.335Z,305.22
2019-03-30T05:29:46.305Z,306.12
2019-03-30T05:30:46.300Z,306.16
2019-03-30T05:31:46.283Z,306.34
2019-03-30T05:32:46.265Z,306.12
2019-03-30T05:33:46.245Z,306.21
2019-03-30T05:34:46.260Z,306.23
2019-03-30T05:35:46.263Z,306.09
2019-03-30T05:36:46.220Z,305.69
2019-03-30T05:37:46.223Z,305.75
2019-03-30T05:38:46.208Z,306.00
2019-03-30T05:39:46.195Z,306.09
2019-03-30T05:40:46.196Z,306.11
2019-03-30T05:41:46.184Z,305.87
2019-03-30T05:42:46.148Z,306.48
2019-03-30T05:43:46.140Z,305.95
2019-03-30T05:44:46.132Z,305.61
2019-03-30T05:45:46.151Z,306.18
2019-03-30T05:46:46.114Z,306.36
2019-03-30T05:47:46.101Z,305.88
2019-03-30T05:48:46.104Z,306.31
2019-03-30T05:49:46.085Z,306.00
2019-03-30T05:50:46.057Z,306.02
2019-03-30T05:51:46.075Z,306.28
2019-03-30T05:52:46.043Z,306.23
2019-03-30T05:53:46.034Z,305.65
2019-03-30T05:54:46.025Z,306.35
2019-03-30T05:55:46.013Z,305.94
2019-03-30T05:56:46.012Z,305.91
2019-03-30T05:57:46.012Z,305.74
2019-03-30T05:58:45.993Z,305.90
2019-03-30T05:59:45.977Z,305.77
2019-03-30T06:00:45.961Z,306.11
2019-03-30T06:01:45.960Z,306.38
2019-03-30T06:02:45.946Z,306.76
2019-03-30T06:03:45.918Z,306.11
2019-03-30T06:04:45.934Z,306.56
2019-03-30T06:05:45.905Z,306.72
2019-03-30T06:06:45.895Z,306.43
2019-03-30T06:07:45.924Z,307.00
2019-03-30T06:08:45.862Z,307.20
2019-03-30T06:09:45.851Z,306.77
2019-03-30T06:10:45.849Z,307.08
2019-03-30T06:11:45.863Z,306.53
2019-03-30T06:12:45.835Z,306.70
2019-03-30T06:13:45.849Z,306.84
2019-03-30T06:14:45.801Z,306.26
2019-03-30T06:15:45.817Z,306.56
2019-03-30T06:16:45.775Z,306.75
2019-03-30T06:17:45.783Z,306.87
2019-03-30T06:18:45.768Z,307.09
2019-03-30T06:19:45.758Z,306.89
2019-03-30T06:20:45.745Z,306.83
2019-03-30T06:21:45.755Z,306.73
2019-03-30T06:22:45.736Z,306.90
2019-03-30T06:23:48.526Z,306.96
2019-03-30T06:24:45.700Z,307.00
2019-03-30T06:25:45.688Z,306.86
2019-03-30T06:26:45.681Z,306.84
2019-03-30T06:27:45.683Z,306.32
2019-03-30T06:28:45.654Z,306.72
2019-03-30T06:29:45.640Z,307.00
2019-03-30T06:30:45.639Z,306.93
2019-03-30T06:31:46.825Z,306.63
2019-03-30T06:32:45.630Z,307.37
2019-03-30T06:33:45.601Z,307.35
2019-03-30T06:34:45.578Z,307.05
2019-03-30T06:35:45.582Z,306.95
2019-03-30T06:36:45.554Z,307.45
2019-03-30T06:37:45.580Z,306.98
2019-03-30T06:38:45.553Z,306.81
2019-03-30T06:39:45.538Z,306.86
2019-03-30T06:40:45.516Z,307.24
2019-03-30T06:41:45.503Z,307.16
2019-03-30T06:42:45.498Z,306.77
2019-03-30T06:43:45.524Z,307.11
2019-03-30T06:44:45.479Z,306.91
2019-03-30T06:45:45.490Z,307.30
2019-03-30T06:46:45.458Z,307.18
2019-03-30T06:47:45.444Z,306.75
2019-03-30T06:48:45.440Z,306.71
2019-03-30T06:49:45.439Z,307.07
2019-03-30T06:50:45.412Z,306.98
2019-03-30T06:51:45.401Z,306.61
2019-03-30T06:52:56.673Z,306.88
2019-03-30T06:53:46.393Z,307.20
2019-03-30T06:54:45.362Z,307.10
2019-03-30T06:55:45.345Z,306.70
2019-03-30T06:56:45.344Z,306.52
2019-03-30T06:57:45.389Z,307.01
2019-03-30T06:58:45.338Z,306.98
2019-03-30T06:59:45.333Z,307.04
2019-03-30T07:00:45.302Z,306.76
2019-03-30T07:01:45.281Z,307.16
2019-03-30T07:02:45.280Z,306.72
2019-03-30T07:03:45.292Z,306.80
2019-03-30T07:04:45.290Z,306.49
2019-03-30T07:05:45.338Z,306.59
2019-03-30T07:06:45.290Z,306.35
2019-03-30T07:07:45.216Z,306.79
2019-03-30T07:08:45.210Z,306.30
2019-03-30T07:09:45.248Z,306.59
2019-03-30T07:10:45.197Z,306.47
2019-03-30T07:11:45.182Z,306.35
2019-03-30T07:12:45.168Z,306.22
2019-03-30T07:13:45.150Z,306.41
2019-03-30T07:14:45.153Z,306.05
2019-03-30T07:15:45.160Z,306.23
2019-03-30T07:16:45.143Z,306.02
2019-03-30T07:17:45.119Z,305.85
2019-03-30T07:18:45.105Z,306.17
2019-03-30T07:19:45.100Z,306.20
2019-03-30T07:20:45.087Z,306.17
2019-03-30T07:21:45.075Z,305.83
2019-03-30T07:22:45.075Z,306.38
2019-03-30T07:23:45.051Z,306.58
2019-03-30T07:24:45.154Z,306.09
2019-03-30T07:25:45.029Z,306.53
2019-03-30T07:26:45.038Z,306.34
2019-03-30T07:27:45.012Z,306.18
2019-03-30T07:28:47.050Z,306.30
2019-03-30T07:29:45.021Z,305.85
2019-03-30T07:30:44.994Z,306.11
2019-03-30T07:31:44.980Z,306.16
2019-03-30T07:32:44.942Z,306.38
2019-03-30T07:33:44.934Z,306.10
2019-03-30T07:34:44.946Z,305.84
2019-03-30T07:35:44.918Z,305.99
2019-03-30T07:36:44.906Z,305.67
2019-03-30T07:37:44.987Z,305.80
2019-03-30T07:38:44.880Z,306.06
2019-03-30T07:39:44.890Z,305.45
2019-03-30T07:40:44.858Z,306.35
2019-03-30T07:41:44.937Z,305.56
2019-03-30T07:42:44.898Z,305.65
2019-03-30T07:43:44.878Z,305.67
2019-03-30T07:44:44.817Z,306.10
2019-03-30T07:45:44.803Z,305.37
2019-03-30T07:46:44.800Z,305.31
2019-03-30T07:47:44.790Z,306.27
2019-03-30T07:48:44.841Z,305.65
2019-03-30T07:49:44.870Z,305.81
2019-03-30T07:50:44.741Z,305.86
2019-03-30T07:51:44.727Z,306.36
2019-03-30T07:52:44.733Z,306.32
2019-03-30T07:53:45.155Z,306.09
2019-03-30T07:54:44.709Z,306.26
2019-03-30T07:55:44.695Z,306.38
2019-03-30T07:56:44.714Z,306.76
2019-03-30T07:57:44.701Z,306.45
2019-03-30T07:58:44.649Z,306.57
2019-03-30T07:59:44.664Z,306.77
2019-03-30T08:00:44.637Z,306.51
2019-03-30T08:01:44.633Z,306.54
2019-03-30T08:02:44.611Z,306.09
2019-03-30T08:03:44.593Z,306.82
2019-03-30T08:04:44.643Z,306.14
2019-03-30T08:05:44.576Z,306.41
2019-03-30T08:06:44.568Z,306.45
2019-03-30T08:07:44.564Z,306.74
2019-03-30T08:08:44.552Z,306.18
2019-03-30T08:09:44.607Z,306.13
2019-03-30T08:10:44.529Z,306.55
2019-03-30T08:11:44.498Z,307.15
2019-03-30T08:12:44.501Z,307.10
2019-03-30T08:13:44.488Z,307.87
2019-03-30T08:14:45.266Z,307.42
2019-03-30T08:15:44.493Z,307.11
2019-03-30T08:16:44.447Z,307.29
2019-03-30T08:17:44.445Z,307.38
2019-03-30T08:18:44.467Z,307.71
2019-03-30T08:19:44.435Z,307.72
2019-03-30T08:20:44.438Z,307.70
2019-03-30T08:21:44.505Z,307.96
2019-03-30T08:22:44.388Z,307.91
2019-03-30T08:23:44.381Z,307.85
2019-03-30T08:24:44.372Z,308.12
2019-03-30T08:25:44.352Z,307.98
2019-03-30T08:26:44.360Z,307.94
2019-03-30T08:27:44.342Z,307.92
2019-03-30T08:28:44.340Z,308.17
2019-03-30T08:29:44.320Z,308.09
2019-03-30T08:30:44.296Z,307.72
2019-03-30T08:31:44.309Z,307.20
2019-03-30T08:32:44.296Z,307.30
2019-03-30T08:33:44.293Z,307.23
2019-03-30T08:34:44.259Z,306.93
2019-03-30T08:35:44.247Z,306.65
2019-03-30T08:36:44.263Z,307.30
2019-03-30T08:37:44.243Z,307.07
2019-03-30T08:38:44.239Z,307.29
2019-03-30T08:39:44.213Z,307.04
2019-03-30T08:40:44.207Z,306.60
2019-03-30T08:41:44.201Z,306.94
2019-03-30T08:42:44.247Z,306.46
2019-03-30T08:43:44.213Z,306.56
2019-03-30T08:44:44.148Z,306.89
2019-03-30T08:45:44.215Z,306.58
2019-03-30T08:46:44.144Z,306.12
2019-03-30T08:47:44.149Z,306.67
2019-03-30T08:48:44.154Z,306.35
2019-03-30T08:49:44.092Z,306.44
2019-03-30T08:50:44.094Z,306.67
2019-03-30T08:51:44.087Z,306.97
2019-03-30T08:52:44.077Z,306.40
2019-03-30T08:53:54.419Z,306.64
2019-03-30T08:54:45.039Z,306.39
2019-03-30T08:55:44.026Z,306.73
2019-03-30T08:56:44.018Z,306.71
2019-03-30T08:57:44.036Z,306.74
2019-03-30T08:58:44.036Z,306.37
2019-03-30T08:59:43.992Z,306.53
2019-03-30T09:00:43.999Z,306.06
2019-03-30T09:01:43.981Z,305.91
2019-03-30T09:02:43.957Z,305.74
2019-03-30T09:03:43.968Z,305.25
2019-03-30T09:04:43.964Z,304.83
2019-03-30T09:05:43.935Z,304.56
2019-03-30T09:06:43.912Z,304.85
2019-03-30T09:07:43.918Z,305.09
2019-03-30T09:08:43.912Z,304.90
2019-03-30T09:09:43.891Z,304.90
2019-03-30T09:10:43.891Z,305.71
2019-03-30T09:11:43.916Z,305.11
2019-03-30T09:12:43.853Z,305.07
2019-03-30T09:13:43.846Z,305.85
2019-03-30T09:14:43.847Z,305.33
2019-03-30T09:15:43.808Z,305.66
2019-03-30T09:16:43.803Z,305.29
2019-03-30T09:17:43.789Z,304.40
2019-03-30T09:18:43.787Z,304.99
2019-03-30T09:19:43.818Z,304.37
2019-03-30T09:20:43.773Z,304.26
2019-03-30T09:21:43.747Z,303.95
2019-03-30T09:22:43.745Z,304.25
2019-03-30T09:23:43.736Z,303.85
2019-03-30T09:24:43.721Z,304.20
2019-03-30T09:25:43.732Z,304.14
2019-03-30T09:26:43.762Z,304.27
2019-03-30T09:27:43.684Z,304.42
2019-03-30T09:28:43.674Z,304.27
2019-03-30T09:29:43.664Z,304.58
2019-03-30T09:30:43.716Z,304.75
2019-03-30T09:31:43.646Z,305.30
2019-03-30T09:32:45.222Z,304.95
2019-03-30T09:33:43.630Z,305.15
2019-03-30T09:34:43.604Z,305.09
2019-03-30T09:35:43.626Z,304.94
2019-03-30T09:36:43.661Z,305.41
2019-03-30T09:37:43.599Z,305.15
2019-03-30T09:38:43.560Z,305.04
2019-03-30T09:39:43.548Z,305.19
2019-03-30T09:40:43.545Z,305.18
2019-03-30T09:41:43.554Z,304.42
2019-03-30T09:42:43.527Z,304.49
2019-03-30T09:43:43.548Z,304.61
2019-03-30T09:44:43.505Z,304.65
2019-03-30T09:45:43.500Z,304.43
2019-03-30T09:46:43.510Z,304.33
2019-03-30T09:47:43.467Z,304.79
2019-03-30T09:48:43.458Z,303.48
2019-03-30T09:49:43.454Z,303.65
2019-03-30T09:50:43.442Z,303.95
2019-03-30T09:51:43.437Z,304.17
2019-03-30T09:52:43.441Z,303.01
2019-03-30T09:53:43.407Z,303.70
2019-03-30T09:54:43.402Z,303.56
2019-03-30T09:55:43.398Z,303.43
2019-03-30T09:56:43.406Z,303.74
2019-03-30T09:57:43.399Z,303.95
2019-03-30T09:58:43.375Z,303.55
2019-03-30T09:59:43.338Z,303.75
2019-03-30T10:00:43.325Z,303.77
2019-03-30T10:01:43.317Z,304.18
2019-03-30T10:02:43.320Z,303.38
2019-03-30T10:03:43.327Z,303.50
2019-03-30T10:04:43.312Z,303.16
2019-03-30T10:05:43.285Z,302.93
2019-03-30T10:06:43.268Z,303.28
2019-03-30T10:07:43.249Z,303.07
2019-03-30T10:08:43.323Z,303.77
2019-03-30T10:09:43.249Z,304.12
2019-03-30T10:10:43.218Z,303.70
2019-03-30T10:11:43.206Z,304.15
2019-03-30T10:12:43.199Z,304.25
2019-03-30T10:13:43.184Z,303.56
2019-03-30T10:14:43.228Z,303.54
2019-03-30T10:15:43.193Z,302.50
2019-03-30T10:16:43.168Z,303.36
2019-03-30T10:17:43.186Z,302.45
2019-03-30T10:18:43.147Z,302.71
2019-03-30T10:19:43.162Z,302.43
2019-03-30T10:20:43.151Z,302.78
2019-03-30T10:21:43.110Z,302.59
2019-03-30T10:22:43.097Z,302.92
2019-03-30T10:23:43.117Z,302.40
2019-03-30T10:24:43.075Z,303.00
2019-03-30T10:25:43.075Z,303.48
2019-03-30T10:26:43.049Z,303.38
2019-03-30T10:27:43.079Z,303.53
2019-03-30T10:28:43.036Z,303.41
2019-03-30T10:29:43.024Z,303.73
2019-03-30T10:30:43.023Z,303.56
2019-03-30T10:31:42.979Z,304.43
2019-03-30T10:32:43.013Z,304.19
2019-03-30T10:33:42.968Z,303.85
2019-03-30T10:34:42.963Z,303.42
2019-03-30T10:35:42.951Z,304.20
2019-03-30T10:36:42.980Z,303.73
2019-03-30T10:37:42.931Z,304.47
2019-03-30T10:38:42.942Z,303.83
2019-03-30T10:39:42.899Z,304.72
2019-03-30T10:40:42.900Z,305.21
2019-03-30T10:41:42.893Z,304.70
2019-03-30T10:42:42.881Z,305.36
2019-03-30T10:43:42.874Z,304.60
2019-03-30T10:44:42.870Z,304.99
2019-03-30T10:45:42.894Z,305.04
2019-03-30T10:46:42.843Z,305.62
2019-03-30T10:47:42.829Z,304.90
2019-03-30T10:48:42.818Z,305.25
2019-03-30T10:49:42.827Z,305.28
2019-03-30T10:50:42.787Z,305.08
2019-03-30T10:51:42.829Z,305.56
2019-03-30T10:52:42.766Z,306.23
2019-03-30T10:53:42.754Z,305.94
2019-03-30T10:54:52.541Z,305.96
2019-03-30T10:55:43.763Z,306.52
2019-03-30T10:56:42.725Z,306.04
2019-03-30T10:57:42.717Z,306.13
2019-03-30T10:58:42.720Z,306.01
2019-03-30T10:59:42.707Z,305.95
2019-03-30T11:00:42.718Z,306.69
2019-03-30T11:01:42.682Z,305.91
2019-03-30T11:02:42.675Z,305.94
2019-03-30T11:03:42.654Z,306.75
2019-03-30T11:04:42.666Z,306.45
2019-03-30T11:05:42.642Z,306.25
2019-03-30T11:06:42.629Z,306.28
2019-03-30T11:07:42.628Z,306.44
2019-03-30T11:08:42.619Z,305.65
2019-03-30T11:09:42.622Z,306.74
2019-03-30T11:10:42.603Z,305.50
2019-03-30T11:11:42.571Z,306.18
2019-03-30T11:12:42.570Z,306.02
2019-03-30T11:13:42.568Z,305.74
2019-03-30T11:14:42.553Z,306.03
2019-03-30T11:15:42.569Z,305.09
2019-03-30T11:16:42.537Z,305.84
2019-03-30T11:17:42.516Z,305.85
2019-03-30T11:18:42.514Z,305.22
2019-03-30T11:19:42.527Z,305.69
2019-03-30T11:20:42.525Z,305.54
2019-03-30T11:21:42.476Z,305.62
2019-03-30T11:22:42.484Z,305.61
2019-03-30T11:23:42.464Z,305.76
2019-03-30T11:24:42.441Z,305.27
2019-03-30T11:25:42.452Z,305.60
2019-03-30T11:26:42.485Z,304.60
2019-03-30T11:27:42.452Z,305.15
2019-03-30T11:28:42.418Z,304.27
2019-03-30T11:29:42.397Z,304.64
2019-03-30T11:30:42.385Z,304.04
2019-03-30T11:31:42.411Z,304.42
2019-03-30T11:32:42.400Z,304.59
2019-03-30T11:33:42.355Z,304.65
2019-03-30T11:34:42.347Z,304.17
2019-03-30T11:35:42.339Z,304.45
2019-03-30T11:36:42.327Z,304.73
2019-03-30T11:37:42.354Z,304.65
2019-03-30T11:38:42.319Z,304.42
2019-03-30T11:39:42.318Z,304.55
2019-03-30T11:40:42.294Z,304.50
2019-03-30T11:41:42.313Z,304.63
2019-03-30T11:42:42.269Z,304.81
2019-03-30T11:43:42.276Z,304.60
2019-03-30T11:44:42.255Z,304.63
2019-03-30T11:45:42.268Z,304.33
2019-03-30T11:46:42.233Z,304.46
2019-03-30T11:47:42.215Z,304.39
2019-03-30T11:48:42.237Z,304.16
2019-03-30T11:49:42.234Z,303.47
2019-03-30T11:50:42.248Z,302.99
2019-03-30T11:51:42.222Z,303.58
2019-03-30T11:52:42.177Z,303.70
2019-03-30T11:53:42.189Z,303.33
2019-03-30T11:54:42.177Z,303.08
2019-03-30T11:55:42.143Z,302.71
2019-03-30T11:56:42.130Z,302.47
2019-03-30T11:57:42.139Z,301.82
2019-03-30T11:58:42.132Z,301.35
2019-03-30T11:59:42.132Z,302.01
2019-03-30T12:00:42.097Z,301.32
2019-03-30T12:01:42.097Z,300.80
2019-03-30T12:02:42.091Z,301.37
2019-03-30T12:03:42.076Z,300.66
2019-03-30T12:04:42.079Z,300.91
2019-03-30T12:05:42.067Z,300.28
2019-03-30T12:06:42.034Z,300.31
2019-03-30T12:07:42.025Z,300.23
2019-03-30T12:08:42.014Z,299.62
2019-03-30T12:09:42.020Z,299.39
2019-03-30T12:10:41.999Z,299.69
2019-03-30T12:11:42.022Z,299.74
2019-03-30T12:12:41.981Z,299.63
2019-03-30T12:13:41.973Z,299.49
2019-03-30T12:14:41.981Z,300.08
2019-03-30T12:15:41.952Z,299.55
2019-03-30T12:16:41.946Z,299.85
2019-03-30T12:17:41.926Z,299.85
2019-03-30T12:18:41.906Z,300.19
2019-03-30T12:19:41.933Z,300.35
2019-03-30T12:20:41.887Z,299.99
2019-03-30T12:21:41.892Z,300.35
2019-03-30T12:22:41.937Z,300.51
2019-03-30T12:23:42.777Z,299.86
2019-03-30T12:24:41.860Z,300.27
2019-03-30T12:25:41.864Z,300.26
2019-03-30T12:26:41.835Z,300.31
2019-03-30T12:27:41.822Z,300.72
2019-03-30T12:28:41.810Z,300.23